메인 페이지
METAR-TAF:

METAR-TAF

공항 :

아카풀코, 멕시코

위도: 16-46N, 경도: 099-45W, 고도: 5m

현재 날씨관측

예보는 36분 전, 06:48시(UTC)에 발표되었습니다.
2kt
온도 24°C
습도 89%
기압 1014 hPa
시정: 8.0km
맑음

METAR: MMAA 210648Z 26002KT 5SM SKC 24/22 A2995 RMK HZY

시각: 02:24 (07:24 UTC)

예보

예보는 2 시간 15분 전, 05:09시(UTC)에 발표되었습니다.
예보 대상 시간: 21일 06시부터 22일 12시까지 (UTC)
북북동5kt
시정: 8.0km
맑음
연무
21일 1600시부터 (UTC)
남서10kt
시정: 9.7km
고도 30000ft 상공 구름 보통
연무
22일 0300시부터 (UTC)
북북동5kt
시정: 8.0km
고도 30000ft 상공 구름 보통
연무

TAF: MMAA 210509Z 2106/2212 03005KT 5SM HZ SKC TX29/2118Z TN22/2112Z FM211600 23010KT 6SM HZ SCT300 FM220300 03005KT 5SM HZ SCT300

4,000개 이상의 공항 관측 자료 및 예보 (METAR 및 TAF 보고).

지도상에서 검색 가능한 기상관측소가 노란 점과 빨간 점으로 표시되어 있습니다.

기상관측소 명을 보려면 표시 위로 마우스를 이동하세요.

날씨 관측과 예보를 보려면 클릭하세요.

지도 변경 : 확대하려면 엑스 표시가 있는 녹색 버튼, 축소하려면 빼기 표시가 있는 녹색 버튼, 다음 페이지의 지도를 보려면 녹색 화살표를 클릭하세요.


METAR-TAF: